createdAt,value
2019-04-21T00:00:55.414Z,39.63
2019-04-21T00:03:27.477Z,39.56
2019-04-21T00:06:18.389Z,39.66
2019-04-21T00:08:50.580Z,39.50
2019-04-21T00:11:26.464Z,39.25
2019-04-21T00:13:51.443Z,39.09
2019-04-21T00:16:10.869Z,39.10
2019-04-21T00:19:17.238Z,38.83
2019-04-21T00:21:50.975Z,38.87
2019-04-21T00:24:30.489Z,38.78
2019-04-21T00:27:05.249Z,39.23
2019-04-21T00:29:45.204Z,39.33
2019-04-21T00:32:10.459Z,39.71
2019-04-21T00:34:30.171Z,39.79
2019-04-21T00:37:12.285Z,39.84
2019-04-21T00:40:00.218Z,40.12
2019-04-21T00:42:32.682Z,40.12
2019-04-21T00:44:58.947Z,40.19
2019-04-21T00:47:34.086Z,40.01
2019-04-21T00:50:08.095Z,40.41
2019-04-21T00:52:58.223Z,40.78
2019-04-21T00:58:19.447Z,41.44
2019-04-21T01:00:46.023Z,41.65
2019-04-21T01:03:20.610Z,41.74
2019-04-21T01:06:00.780Z,42.04
2019-04-21T01:08:23.477Z,41.92
2019-04-21T01:10:49.971Z,42.04
2019-04-21T01:13:39.473Z,41.90
2019-04-21T01:16:07.228Z,42.22
2019-04-21T01:18:32.407Z,42.16
2019-04-21T01:20:47.316Z,42.62
2019-04-21T01:23:19.217Z,42.76
2019-04-21T01:26:09.209Z,42.81
2019-04-21T01:28:40.067Z,43.26
2019-04-21T01:31:13.642Z,43.32
2019-04-21T01:33:50.851Z,43.36
2019-04-21T01:36:18.204Z,43.62
2019-04-21T01:39:01.128Z,43.88
2019-04-21T01:41:35.193Z,43.56
2019-04-21T01:43:55.600Z,43.61
2019-04-21T01:46:29.842Z,44.54
2019-04-21T01:49:02.160Z,43.97
2019-04-21T01:51:45.444Z,44.42
2019-04-21T01:54:35.582Z,44.66
2019-04-21T01:57:20.037Z,44.95
2019-04-21T01:59:43.898Z,45.12
2019-04-21T02:02:26.667Z,44.88
2019-04-21T02:05:05.812Z,44.61
2019-04-21T02:07:32.645Z,44.45
2019-04-21T02:10:04.809Z,44.53
2019-04-21T02:12:42.095Z,44.14
2019-04-21T02:15:11.328Z,43.88
2019-04-21T02:17:45.304Z,44.34
2019-04-21T02:20:09.481Z,44.36
2019-04-21T02:23:07.351Z,44.98
2019-04-21T02:25:26.327Z,45.09
2019-04-21T02:27:57.598Z,44.82
2019-04-21T02:33:23.175Z,44.99
2019-04-21T02:36:16.502Z,44.76
2019-04-21T02:38:34.270Z,44.74
2019-04-21T02:43:24.918Z,45.81
2019-04-21T02:46:04.757Z,46.56
2019-04-21T02:48:38.262Z,47.09
2019-04-21T02:51:10.775Z,47.54
2019-04-21T02:56:17.995Z,49.94
2019-04-21T02:59:12.387Z,50.49
2019-04-21T03:02:04.486Z,50.65
2019-04-21T03:04:43.116Z,51.93
2019-04-21T03:09:51.210Z,54.69
2019-04-21T03:12:38.068Z,54.59
2019-04-21T03:17:46.226Z,55.63
2019-04-21T03:20:15.066Z,55.89
2019-04-21T03:22:42.232Z,56.09
2019-04-21T03:25:25.149Z,57.54
2019-04-21T03:27:57.286Z,58.67
2019-04-21T03:38:14.688Z,58.51
2019-04-21T03:40:26.175Z,58.12
2019-04-21T03:43:04.934Z,58.56
2019-04-21T03:48:11.525Z,59.42
2019-04-21T03:50:44.781Z,59.83
2019-04-21T03:58:35.124Z,60.76
2019-04-21T04:14:47.452Z,59.70
2019-04-21T04:27:33.367Z,62.16
2019-04-21T04:30:07.998Z,62.49
2019-04-21T04:32:23.514Z,62.83
2019-04-21T04:34:57.193Z,62.81
2019-04-21T04:37:32.645Z,62.91
2019-04-21T04:42:56.907Z,63.03
2019-04-21T04:45:31.477Z,63.12
2019-04-21T04:48:11.918Z,63.11
2019-04-21T04:50:43.345Z,62.77
2019-04-21T04:53:15.688Z,62.99
2019-04-21T05:03:32.923Z,63.71
2019-04-21T05:09:07.714Z,63.30
2019-04-21T05:16:53.081Z,61.70
2019-04-21T05:19:14.623Z,61.58
2019-04-21T05:21:42.286Z,61.81
2019-04-21T05:24:08.199Z,60.71
2019-04-21T05:26:39.094Z,60.77
2019-04-21T05:29:11.014Z,60.40
2019-04-21T05:32:13.263Z,58.91
2019-04-21T05:34:31.627Z,58.26
2019-04-21T05:37:14.180Z,55.88
2019-04-21T05:39:47.985Z,53.91
2019-04-21T05:42:22.744Z,52.93
2019-04-21T05:45:09.174Z,53.93
2019-04-21T05:48:05.987Z,51.80
2019-04-21T05:50:27.522Z,51.26
2019-04-21T05:58:20.994Z,42.57
2019-04-21T06:03:41.112Z,37.67
2019-04-21T06:06:13.779Z,35.92
2019-04-21T06:08:49.682Z,34.50
2019-04-21T06:11:23.305Z,34.23
2019-04-21T06:13:55.143Z,33.86
2019-04-21T06:16:28.733Z,33.36
2019-04-21T06:18:58.734Z,32.82
2019-04-21T06:21:30.786Z,32.83
2019-04-21T06:24:08.408Z,32.11
2019-04-21T06:26:54.987Z,31.54
2019-04-21T06:29:13.469Z,31.01
2019-04-21T06:34:16.637Z,29.70
2019-04-21T06:37:07.827Z,30.08
2019-04-21T06:39:57.027Z,30.28
2019-04-21T06:42:10.887Z,30.04
2019-04-21T06:44:54.526Z,30.29
2019-04-21T06:47:27.673Z,30.02
2019-04-21T06:49:48.624Z,29.96
2019-04-21T06:55:05.382Z,30.49
2019-04-21T07:00:02.888Z,30.38
2019-04-21T07:02:50.739Z,29.85
2019-04-21T07:05:09.096Z,29.28
2019-04-21T07:07:43.434Z,29.84
2019-04-21T07:10:16.935Z,30.00
2019-04-21T07:12:46.604Z,29.47
2019-04-21T07:15:27.832Z,29.06
2019-04-21T07:23:22.684Z,28.80
2019-04-21T07:25:45.922Z,29.65
2019-04-21T07:28:17.530Z,29.43
2019-04-21T07:30:56.637Z,28.99
2019-04-21T07:33:50.893Z,29.42
2019-04-21T07:35:57.823Z,29.87
2019-04-21T07:38:28.588Z,29.93
2019-04-21T07:40:57.017Z,29.21
2019-04-21T07:43:43.776Z,28.54
2019-04-21T07:46:15.395Z,28.35
2019-04-21T07:48:58.530Z,28.65
2019-04-21T07:51:45.619Z,27.70
2019-04-21T07:54:23.776Z,27.44
2019-04-21T07:56:35.039Z,27.59
2019-04-21T07:59:27.272Z,26.61
2019-04-21T08:01:55.013Z,27.19
2019-04-21T08:04:49.632Z,27.65
2019-04-21T08:06:58.203Z,25.97
2019-04-21T08:09:38.989Z,25.73
2019-04-21T08:12:03.783Z,25.12
2019-04-21T08:14:43.929Z,25.35
2019-04-21T08:17:09.529Z,26.00
2019-04-21T08:19:44.602Z,25.37
2019-04-21T08:22:29.220Z,25.59
2019-04-21T08:24:50.852Z,25.97
2019-04-21T08:27:28.217Z,26.49
2019-04-21T08:29:58.342Z,26.06
2019-04-21T08:32:46.325Z,24.74
2019-04-21T08:35:20.695Z,25.80
2019-04-21T08:37:39.883Z,25.53
2019-04-21T08:42:50.791Z,24.93
2019-04-21T08:50:27.887Z,24.09
2019-04-21T08:53:03.890Z,23.67
2019-04-21T08:56:10.002Z,24.47
2019-04-21T08:58:54.887Z,24.60
2019-04-21T09:01:30.414Z,24.64
2019-04-21T09:03:59.416Z,25.95
2019-04-21T09:06:58.616Z,26.04
2019-04-21T09:09:10.891Z,25.70
2019-04-21T09:11:42.203Z,24.56
2019-04-21T09:14:13.862Z,24.26
2019-04-21T09:16:47.721Z,23.25
2019-04-21T09:19:33.977Z,22.86
2019-04-21T09:21:54.577Z,23.68
2019-04-21T09:24:26.985Z,22.28
2019-04-21T09:26:57.986Z,22.35
2019-04-21T09:29:26.472Z,23.58
2019-04-21T09:31:54.466Z,23.73
2019-04-21T09:34:31.859Z,24.59
2019-04-21T09:37:13.988Z,24.58
2019-04-21T09:39:31.559Z,24.04
2019-04-21T09:42:04.639Z,23.60
2019-04-21T09:44:40.124Z,24.81
2019-04-21T09:47:09.203Z,26.60
2019-04-21T09:49:43.131Z,25.58
2019-04-21T09:52:20.918Z,25.90
2019-04-21T09:54:56.618Z,27.08
2019-04-21T09:57:31.528Z,27.37
2019-04-21T10:00:02.244Z,26.86
2019-04-21T10:02:34.138Z,26.82
2019-04-21T10:05:00.175Z,26.16
2019-04-21T10:07:35.572Z,27.34
2019-04-21T10:10:05.897Z,27.33
2019-04-21T10:12:37.472Z,27.28
2019-04-21T10:15:10.748Z,26.72
2019-04-21T10:17:54.376Z,27.45
2019-04-21T10:20:26.459Z,26.94
2019-04-21T10:22:57.903Z,26.09
2019-04-21T10:25:30.526Z,26.04
2019-04-21T10:28:03.118Z,25.95
2019-04-21T10:30:36.440Z,26.42
2019-04-21T10:33:08.394Z,25.68
2019-04-21T10:35:41.204Z,26.12
2019-04-21T10:38:22.711Z,25.71
2019-04-21T10:40:45.844Z,26.16
2019-04-21T10:43:20.665Z,26.08
2019-04-21T10:45:50.716Z,26.10
2019-04-21T10:48:23.119Z,25.78
2019-04-21T10:50:54.905Z,25.48
2019-04-21T10:53:32.386Z,25.44
2019-04-21T10:56:15.692Z,24.94
2019-04-21T10:58:42.426Z,25.70
2019-04-21T11:01:23.189Z,25.50
2019-04-21T11:04:20.326Z,24.27
2019-04-21T11:06:46.844Z,24.81
2019-04-21T11:09:18.130Z,24.29
2019-04-21T11:11:51.372Z,23.49
2019-04-21T11:14:23.145Z,20.97
2019-04-21T11:16:55.146Z,22.97
2019-04-21T11:19:28.591Z,23.49
2019-04-21T11:22:01.026Z,22.28
2019-04-21T11:24:33.651Z,20.97
2019-04-21T11:27:04.969Z,20.30
2019-04-21T11:29:37.156Z,22.15
2019-04-21T11:32:09.318Z,22.98
2019-04-21T11:34:41.009Z,23.75
2019-04-21T11:37:14.382Z,23.98
2019-04-21T11:39:52.016Z,23.48
2019-04-21T11:42:28.235Z,23.17
2019-04-21T11:45:00.658Z,24.33
2019-04-21T11:47:36.704Z,22.14
2019-04-21T11:50:08.305Z,23.78
2019-04-21T11:52:40.797Z,22.96
2019-04-21T11:55:12.873Z,21.51
2019-04-21T11:57:49.463Z,21.71
2019-04-21T12:00:19.745Z,20.78
2019-04-21T12:02:51.265Z,21.31
2019-04-21T12:05:23.603Z,21.17
2019-04-21T12:07:58.274Z,22.22
2019-04-21T12:10:29.243Z,22.67
2019-04-21T12:13:01.379Z,22.61
2019-04-21T12:15:34.668Z,23.08
2019-04-21T12:18:06.241Z,22.07
2019-04-21T12:20:38.157Z,22.55
2019-04-21T12:23:09.495Z,23.08
2019-04-21T12:25:45.181Z,22.54
2019-04-21T12:28:17.427Z,24.89
2019-04-21T12:30:53.647Z,25.16
2019-04-21T12:34:00.298Z,23.29
2019-04-21T12:36:31.794Z,23.95
2019-04-21T12:39:05.190Z,23.66
2019-04-21T12:41:36.306Z,23.02
2019-04-21T12:44:08.810Z,23.10
2019-04-21T12:46:40.329Z,22.74
2019-04-21T12:49:11.922Z,22.68
2019-04-21T12:54:12.618Z,23.20
2019-04-21T12:56:43.883Z,22.56
2019-04-21T12:59:15.208Z,22.41
2019-04-21T13:01:46.616Z,23.01
2019-04-21T13:04:17.871Z,23.34
2019-04-21T13:06:49.835Z,23.21
2019-04-21T13:09:22.247Z,23.41
2019-04-21T13:11:55.061Z,23.56
2019-04-21T13:14:26.561Z,22.43
2019-04-21T13:16:57.746Z,22.78
2019-04-21T13:19:29.351Z,23.24
2019-04-21T13:22:01.613Z,23.07
2019-04-21T13:24:33.709Z,23.51
2019-04-21T13:27:06.782Z,24.25
2019-04-21T13:29:38.586Z,23.75
2019-04-21T13:32:10.780Z,22.72
2019-04-21T13:34:44.193Z,23.00
2019-04-21T13:37:15.664Z,23.98
2019-04-21T13:40:25.197Z,22.85
2019-04-21T13:42:43.822Z,23.47
2019-04-21T13:45:12.222Z,23.59
2019-04-21T13:47:43.646Z,24.83
2019-04-21T13:50:17.238Z,22.99
2019-04-21T13:52:48.962Z,22.35
2019-04-21T13:55:21.349Z,23.01
2019-04-21T13:57:52.823Z,22.62
2019-04-21T14:00:24.495Z,23.28
2019-04-21T14:02:56.503Z,23.02
2019-04-21T14:05:28.678Z,22.80
2019-04-21T14:08:00.986Z,24.28
2019-04-21T14:10:33.512Z,24.13
2019-04-21T14:13:06.606Z,22.90
2019-04-21T14:15:38.081Z,22.88
2019-04-21T14:18:09.386Z,23.14
2019-04-21T14:20:40.719Z,23.38
2019-04-21T14:23:21.334Z,23.21
2019-04-21T14:25:45.807Z,22.54
2019-04-21T14:28:17.833Z,21.76
2019-04-21T14:30:50.454Z,22.45
2019-04-21T14:33:23.437Z,23.33
2019-04-21T14:35:54.867Z,23.18
2019-04-21T14:38:26.792Z,23.90
2019-04-21T14:40:58.369Z,24.45
2019-04-21T14:43:30.089Z,22.46
2019-04-21T14:46:21.464Z,22.34
2019-04-21T14:49:15.188Z,21.41
2019-04-21T14:52:05.301Z,23.36
2019-04-21T14:55:00.681Z,23.19
2019-04-21T14:57:31.980Z,22.03
2019-04-21T15:00:04.836Z,21.97
2019-04-21T15:02:36.245Z,21.83
2019-04-21T15:05:09.470Z,21.64
2019-04-21T15:07:41.445Z,22.00
2019-04-21T15:10:20.089Z,21.24
2019-04-21T15:12:47.791Z,22.53
2019-04-21T15:15:20.180Z,22.06
2019-04-21T15:17:51.645Z,20.80
2019-04-21T15:20:23.841Z,21.42
2019-04-21T15:22:56.584Z,20.83
2019-04-21T15:25:28.019Z,21.22
2019-04-21T15:27:59.341Z,20.98
2019-04-21T15:30:32.448Z,20.43
2019-04-21T15:33:04.519Z,21.52
2019-04-21T15:35:37.355Z,22.16
2019-04-21T15:38:09.761Z,20.53
2019-04-21T15:40:49.656Z,20.96
2019-04-21T15:43:14.742Z,21.09
2019-04-21T15:45:46.786Z,21.21
2019-04-21T15:48:18.319Z,21.07
2019-04-21T15:50:51.547Z,21.11
2019-04-21T15:53:23.648Z,20.44
2019-04-21T15:56:08.719Z,20.66
2019-04-21T15:58:46.408Z,20.95
2019-04-21T16:01:36.475Z,21.04
2019-04-21T16:04:08.055Z,21.24
2019-04-21T16:06:39.672Z,21.87
2019-04-21T16:09:14.895Z,21.69
2019-04-21T16:11:46.371Z,21.57
2019-04-21T16:14:20.594Z,22.18
2019-04-21T16:16:53.566Z,22.06
2019-04-21T16:19:25.210Z,22.15
2019-04-21T16:21:56.797Z,22.04
2019-04-21T16:24:28.168Z,22.63
2019-04-21T16:27:01.698Z,22.21
2019-04-21T16:29:33.289Z,22.69
2019-04-21T16:32:04.953Z,22.56
2019-04-21T16:34:45.631Z,23.01
2019-04-21T16:37:09.774Z,23.04
2019-04-21T16:39:45.338Z,23.72
2019-04-21T16:42:16.681Z,23.50
2019-04-21T16:44:49.170Z,23.44
2019-04-21T16:47:21.505Z,23.65
2019-04-21T16:49:53.923Z,23.26
2019-04-21T16:52:30.004Z,23.45
2019-04-21T16:55:07.061Z,23.16
2019-04-21T16:57:59.474Z,22.93
2019-04-21T17:00:31.605Z,22.90
2019-04-21T17:02:58.799Z,23.08
2019-04-21T17:05:30.168Z,23.04
2019-04-21T17:08:01.852Z,23.36
2019-04-21T17:10:33.255Z,24.00
2019-04-21T17:13:06.202Z,24.17
2019-04-21T17:15:56.679Z,24.42
2019-04-21T17:18:25.588Z,24.60
2019-04-21T17:20:49.160Z,24.17
2019-04-21T17:23:19.737Z,23.91
2019-04-21T17:25:51.058Z,23.80
2019-04-21T17:28:23.526Z,24.20
2019-04-21T17:30:54.808Z,24.19
2019-04-21T17:33:28.330Z,24.34
2019-04-21T17:35:59.148Z,24.23
2019-04-21T17:38:30.591Z,24.20
2019-04-21T17:41:13.876Z,24.10
2019-04-21T17:43:35.678Z,23.75
2019-04-21T17:46:07.220Z,24.25
2019-04-21T17:48:38.775Z,25.08
2019-04-21T17:51:29.850Z,25.54
2019-04-21T17:54:13.914Z,25.93
2019-04-21T17:59:44.774Z,26.85
2019-04-21T18:02:00.459Z,27.05
2019-04-21T18:04:37.466Z,27.23
2019-04-21T18:07:27.445Z,27.69
2019-04-21T18:10:04.734Z,28.01
2019-04-21T18:12:40.028Z,28.74
2019-04-21T18:15:08.396Z,28.63
2019-04-21T18:17:28.673Z,28.73
2019-04-21T18:20:01.666Z,28.91
2019-04-21T18:23:02.364Z,29.08
2019-04-21T18:25:44.886Z,29.09
2019-04-21T18:28:08.237Z,29.40
2019-04-21T18:30:46.930Z,30.15
2019-04-21T18:33:25.317Z,30.21
2019-04-21T18:36:34.841Z,30.72
2019-04-21T18:39:49.530Z,30.91
2019-04-21T18:42:31.129Z,31.25
2019-04-21T18:45:45.814Z,31.58
2019-04-21T18:48:21.782Z,31.90
2019-04-21T18:51:00.281Z,31.89
2019-04-21T18:53:44.767Z,32.26
2019-04-21T18:56:06.452Z,32.20
2019-04-21T18:58:36.156Z,32.56
2019-04-21T19:01:16.365Z,32.82
2019-04-21T19:03:44.992Z,32.57
2019-04-21T19:06:18.796Z,32.91
2019-04-21T19:09:04.852Z,32.49
2019-04-21T19:11:33.235Z,32.80
2019-04-21T19:14:34.693Z,33.26
2019-04-21T19:17:29.227Z,32.74
2019-04-21T19:19:44.475Z,32.67
2019-04-21T19:22:10.490Z,32.79
2019-04-21T19:25:00.407Z,33.27
2019-04-21T19:27:17.619Z,33.05
2019-04-21T19:29:58.311Z,32.89
2019-04-21T19:34:40.395Z,32.82
2019-04-21T19:37:14.957Z,32.94
2019-04-21T19:39:56.677Z,32.95
2019-04-21T19:42:25.668Z,32.78
2019-04-21T19:45:05.927Z,32.59
2019-04-21T19:47:40.583Z,32.67
2019-04-21T19:50:19.525Z,32.54
2019-04-21T19:52:39.902Z,32.41
2019-04-21T19:55:02.542Z,32.28
2019-04-21T19:57:34.724Z,32.38
2019-04-21T20:00:08.200Z,32.49
2019-04-21T20:02:40.535Z,32.39
2019-04-21T20:05:20.227Z,32.24
2019-04-21T20:08:04.124Z,32.10
2019-04-21T20:10:39.540Z,32.44
2019-04-21T20:13:14.549Z,32.40
2019-04-21T20:15:44.731Z,32.34
2019-04-21T20:18:07.188Z,32.21
2019-04-21T20:20:30.970Z,32.08
2019-04-21T20:23:03.056Z,32.18
2019-04-21T20:25:42.407Z,32.68
2019-04-21T20:28:16.086Z,32.55
2019-04-21T20:30:58.320Z,32.57
2019-04-21T20:33:48.715Z,32.18
2019-04-21T20:36:09.715Z,32.39
2019-04-21T20:38:31.099Z,32.01
2019-04-21T20:41:00.134Z,32.16
2019-04-21T20:43:42.529Z,31.84
2019-04-21T20:46:12.344Z,32.21
2019-04-21T20:48:48.078Z,32.56
2019-04-21T20:51:21.909Z,32.69
2019-04-21T20:53:53.849Z,33.13
2019-04-21T20:56:21.179Z,33.73
2019-04-21T20:59:04.480Z,33.55
2019-04-21T21:01:34.820Z,33.91
2019-04-21T21:04:10.266Z,34.54
2019-04-21T21:06:36.032Z,34.48
2019-04-21T21:09:10.151Z,34.71
2019-04-21T21:11:56.554Z,35.09
2019-04-21T21:14:26.914Z,35.36
2019-04-21T21:16:58.105Z,35.73
2019-04-21T21:19:28.910Z,36.06
2019-04-21T21:21:56.455Z,36.32
2019-04-21T21:24:38.815Z,36.89
2019-04-21T21:27:05.920Z,37.36
2019-04-21T21:29:33.578Z,37.66
2019-04-21T21:32:16.681Z,38.11
2019-04-21T21:34:47.914Z,38.45
2019-04-21T21:37:26.802Z,38.53
2019-04-21T21:39:57.117Z,39.12
2019-04-21T21:42:07.572Z,39.48
2019-04-21T21:44:41.721Z,40.25
2019-04-21T21:47:26.147Z,40.08
2019-04-21T21:49:55.430Z,40.73
2019-04-21T21:52:32.739Z,40.78
2019-04-21T21:54:49.864Z,42.20
2019-04-21T21:57:21.209Z,41.81
2019-04-21T21:59:58.838Z,41.77
2019-04-21T22:02:35.318Z,41.51
2019-04-21T22:05:08.712Z,42.25
2019-04-21T22:07:33.668Z,41.55
2019-04-21T22:10:06.336Z,40.83
2019-04-21T22:12:45.706Z,41.26
2019-04-21T22:15:18.840Z,40.60
2019-04-21T22:18:01.144Z,40.53
2019-04-21T22:20:37.809Z,40.52
2019-04-21T22:23:00.651Z,40.04
2019-04-21T22:25:28.227Z,40.10
2019-04-21T22:27:57.909Z,40.00
2019-04-21T22:30:37.044Z,40.11
2019-04-21T22:33:08.288Z,40.23
2019-04-21T22:35:42.556Z,40.40
2019-04-21T22:38:23.390Z,40.53
2019-04-21T22:40:55.478Z,40.26
2019-04-21T22:43:24.477Z,40.35
2019-04-21T22:45:49.394Z,40.62
2019-04-21T22:48:23.644Z,40.54
2019-04-21T22:50:53.784Z,40.55
2019-04-21T22:53:29.336Z,40.67
2019-04-21T22:56:04.332Z,41.22
2019-04-21T22:58:35.703Z,41.26
2019-04-21T23:01:05.576Z,41.10
2019-04-21T23:03:40.141Z,41.34
2019-04-21T23:06:16.208Z,41.41
2019-04-21T23:08:45.657Z,41.44
2019-04-21T23:11:16.678Z,41.60
2019-04-21T23:13:52.660Z,41.81
2019-04-21T23:16:29.317Z,41.78
2019-04-21T23:19:10.991Z,41.99
2019-04-21T23:21:48.466Z,42.18
2019-04-21T23:24:14.869Z,42.42
2019-04-21T23:26:48.611Z,42.45
2019-04-21T23:29:25.854Z,42.68
2019-04-21T23:31:55.059Z,42.62
2019-04-21T23:34:18.449Z,43.03
2019-04-21T23:36:54.373Z,43.21
2019-04-21T23:39:23.660Z,43.38
2019-04-21T23:41:52.945Z,43.33
2019-04-21T23:44:24.091Z,43.51
2019-04-21T23:47:00.987Z,43.49
2019-04-21T23:49:40.551Z,43.52
2019-04-21T23:52:05.247Z,43.67
2019-04-21T23:54:35.481Z,43.72
2019-04-21T23:57:14.315Z,43.83
2019-04-21T23:59:51.274Z,44.13
